N8180P KCRW-KILG
Flight info
| Callsign | N8180P |
|---|---|
| Flight time | 1h 51m |
| Altitude | 7500 |
| Route | HVQ V4 ESL V166 MRB V457 EMI V166 DQO |
| Aircraft | PA24/L-SDGRY/S |
Departure
| Time | 2026-05-05 21:48 |
|---|---|
| Airport | Yeager Airport (KCRW) |
Arrival
| Time | 2026-05-05 23:39 |
|---|---|
| Airport | Wilmington Airport (KILG) |
| Time | Latitude | Longitude | Altitude | Speed | Heading |
|---|---|---|---|---|---|
| 2026-05-05 21:42 | 38.37178 | -81.59436 | 930 ft | 8 kts | 321° |
| 2026-05-05 21:42 | 38.37239 | -81.59500 | 929 ft | 13 kts | 322° |
| 2026-05-05 21:43 | 38.37297 | -81.59538 | 927 ft | 8 kts | 23° |
| 2026-05-05 21:43 | 38.37316 | -81.59513 | 927 ft | 1 kts | 52° |
| 2026-05-05 21:43 | 38.37348 | -81.59469 | 926 ft | 5 kts | 47° |
| 2026-05-05 21:43 | 38.37372 | -81.59435 | 924 ft | 8 kts | 46° |
| 2026-05-05 21:44 | 38.37428 | -81.59358 | 921 ft | 13 kts | 46° |
| 2026-05-05 21:44 | 38.37492 | -81.59270 | 913 ft | 13 kts | 46° |
| 2026-05-05 21:44 | 38.37533 | -81.59216 | 907 ft | 7 kts | 44° |
| 2026-05-05 21:44 | 38.37605 | -81.59117 | 894 ft | 13 kts | 47° |
| 2026-05-05 21:45 | 38.37642 | -81.59066 | 889 ft | 5 kts | 47° |
| 2026-05-05 21:45 | 38.37682 | -81.59013 | 884 ft | 12 kts | 46° |
| 2026-05-05 21:45 | 38.37783 | -81.58875 | 864 ft | 27 kts | 46° |
| 2026-05-05 21:45 | 38.37912 | -81.58699 | 841 ft | 23 kts | 47° |
| 2026-05-05 21:46 | 38.37994 | -81.58588 | 828 ft | 22 kts | 46° |
| 2026-05-05 21:46 | 38.38088 | -81.58461 | 809 ft | 18 kts | 47° |
| 2026-05-05 21:46 | 38.38152 | -81.58389 | 798 ft | 12 kts | 9° |
| 2026-05-05 21:46 | 38.38211 | -81.58426 | 804 ft | 7 kts | 311° |
| 2026-05-05 21:47 | 38.38211 | -81.58456 | 809 ft | 0 kts | 226° |
| 2026-05-05 21:47 | 38.38209 | -81.58458 | 809 ft | 8 kts | 227° |
| 2026-05-05 21:47 | 38.38012 | -81.58730 | 851 ft | 68 kts | 226° |
| 2026-05-05 21:48 | 38.37655 | -81.59244 | 1002 ft | 84 kts | 226° |
| 2026-05-05 21:48 | 38.37225 | -81.59824 | 1277 ft | 93 kts | 220° |
| 2026-05-05 21:48 | 38.36748 | -81.60384 | 1622 ft | 96 kts | 236° |
| 2026-05-05 21:48 | 38.36697 | -81.61201 | 2000 ft | 98 kts | 274° |
| 2026-05-05 21:49 | 38.36846 | -81.62048 | 2304 ft | 98 kts | 274° |
| 2026-05-05 21:49 | 38.36927 | -81.62919 | 2581 ft | 98 kts | 264° |
| 2026-05-05 21:49 | 38.36908 | -81.63786 | 2799 ft | 98 kts | 259° |
| 2026-05-05 21:49 | 38.36830 | -81.64658 | 3040 ft | 99 kts | 256° |
| 2026-05-05 21:50 | 38.36730 | -81.65492 | 3306 ft | 96 kts | 254° |
| 2026-05-05 21:50 | 38.36614 | -81.66328 | 3556 ft | 96 kts | 252° |
| 2026-05-05 21:50 | 38.36493 | -81.67163 | 3799 ft | 97 kts | 252° |
| 2026-05-05 21:50 | 38.36369 | -81.68010 | 4055 ft | 97 kts | 252° |
| 2026-05-05 21:51 | 38.36243 | -81.68857 | 4283 ft | 99 kts | 252° |
| 2026-05-05 21:51 | 38.36344 | -81.69739 | 4546 ft | 112 kts | 291° |
| 2026-05-05 21:51 | 38.37033 | -81.70322 | 4794 ft | 132 kts | 338° |
| 2026-05-05 21:51 | 38.37973 | -81.70153 | 5022 ft | 146 kts | 25° |
| 2026-05-05 21:52 | 38.38825 | -81.68012 | 5559 ft | 138 kts | 96° |
| 2026-05-05 21:52 | 38.38907 | -81.66811 | 5825 ft | 140 kts | 92° |
| 2026-05-05 21:52 | 38.39091 | -81.65586 | 6082 ft | 143 kts | 84° |
| 2026-05-05 21:53 | 38.39381 | -81.64366 | 6351 ft | 144 kts | 78° |
| 2026-05-05 21:53 | 38.39737 | -81.63158 | 6604 ft | 146 kts | 76° |
| 2026-05-05 21:53 | 38.40127 | -81.61953 | 6847 ft | 148 kts | 73° |
| 2026-05-05 21:53 | 38.40540 | -81.60735 | 7108 ft | 148 kts | 72° |
| 2026-05-05 21:54 | 38.40953 | -81.59533 | 7333 ft | 151 kts | 73° |
| 2026-05-05 21:54 | 38.41382 | -81.58281 | 7472 ft | 160 kts | 72° |
| 2026-05-05 21:54 | 38.41853 | -81.56902 | 7497 ft | 175 kts | 71° |
| 2026-05-05 21:54 | 38.42351 | -81.55445 | 7499 ft | 186 kts | 71° |
| 2026-05-05 21:55 | 38.42882 | -81.53897 | 7500 ft | 193 kts | 71° |
| 2026-05-05 21:55 | 38.43427 | -81.52310 | 7498 ft | 198 kts | 71° |
| 2026-05-05 21:55 | 38.43980 | -81.50700 | 7496 ft | 201 kts | 70° |
| 2026-05-05 21:55 | 38.44545 | -81.49057 | 7497 ft | 204 kts | 71° |
| 2026-05-05 21:56 | 38.45119 | -81.47385 | 7495 ft | 205 kts | 70° |
| 2026-05-05 21:56 | 38.45686 | -81.45739 | 7493 ft | 204 kts | 70° |
| 2026-05-05 21:56 | 38.46261 | -81.44067 | 7494 ft | 205 kts | 71° |
| 2026-05-05 21:56 | 38.46835 | -81.42400 | 7491 ft | 205 kts | 70° |
| 2026-05-05 21:57 | 38.47402 | -81.40749 | 7485 ft | 206 kts | 71° |
| 2026-05-05 21:57 | 38.47980 | -81.39062 | 7487 ft | 206 kts | 71° |
| 2026-05-05 21:57 | 38.48552 | -81.37397 | 7487 ft | 207 kts | 70° |
| 2026-05-05 21:57 | 38.49127 | -81.35719 | 7485 ft | 207 kts | 70° |
| 2026-05-05 21:58 | 38.49705 | -81.34033 | 7481 ft | 207 kts | 71° |
| 2026-05-05 21:58 | 38.50285 | -81.32340 | 7476 ft | 207 kts | 71° |
| 2026-05-05 21:58 | 38.50860 | -81.30659 | 7472 ft | 207 kts | 71° |
| 2026-05-05 21:58 | 38.51436 | -81.28978 | 7468 ft | 207 kts | 71° |
| 2026-05-05 21:59 | 38.52011 | -81.27294 | 7466 ft | 206 kts | 71° |
| 2026-05-05 21:59 | 38.52578 | -81.25634 | 7468 ft | 206 kts | 71° |
| 2026-05-05 21:59 | 38.53158 | -81.23936 | 7471 ft | 206 kts | 71° |
| 2026-05-05 21:59 | 38.53727 | -81.22271 | 7475 ft | 205 kts | 71° |
| 2026-05-05 22:00 | 38.54297 | -81.20599 | 7474 ft | 206 kts | 70° |
| 2026-05-05 22:00 | 38.54871 | -81.18919 | 7470 ft | 206 kts | 70° |
| 2026-05-05 22:00 | 38.55439 | -81.17250 | 7467 ft | 206 kts | 71° |
| 2026-05-05 22:00 | 38.56014 | -81.15564 | 7470 ft | 206 kts | 71° |
| 2026-05-05 22:01 | 38.56583 | -81.13892 | 7471 ft | 206 kts | 71° |
| 2026-05-05 22:01 | 38.57155 | -81.12215 | 7470 ft | 206 kts | 71° |
| 2026-05-05 22:01 | 38.57724 | -81.10541 | 7472 ft | 206 kts | 71° |
| 2026-05-05 22:01 | 38.58294 | -81.08865 | 7475 ft | 205 kts | 71° |
| 2026-05-05 22:02 | 38.58864 | -81.07188 | 7481 ft | 205 kts | 71° |
| 2026-05-05 22:02 | 38.59426 | -81.05533 | 7481 ft | 205 kts | 71° |
| 2026-05-05 22:02 | 38.59994 | -81.03856 | 7481 ft | 205 kts | 71° |
| 2026-05-05 22:02 | 38.60566 | -81.02173 | 7485 ft | 205 kts | 71° |
| 2026-05-05 22:03 | 38.61118 | -81.00510 | 7488 ft | 205 kts | 72° |
| 2026-05-05 22:03 | 38.61674 | -80.98816 | 7490 ft | 206 kts | 72° |
| 2026-05-05 22:03 | 38.62223 | -80.97146 | 7489 ft | 206 kts | 72° |
| 2026-05-05 22:03 | 38.62782 | -80.95461 | 7492 ft | 206 kts | 71° |
| 2026-05-05 22:04 | 38.63345 | -80.93772 | 7493 ft | 206 kts | 72° |
| 2026-05-05 22:04 | 38.63908 | -80.92094 | 7495 ft | 206 kts | 71° |
| 2026-05-05 22:04 | 38.64476 | -80.90408 | 7493 ft | 206 kts | 71° |
| 2026-05-05 22:04 | 38.65047 | -80.88711 | 7493 ft | 206 kts | 71° |
| 2026-05-05 22:05 | 38.65608 | -80.87048 | 7495 ft | 206 kts | 71° |
| 2026-05-05 22:05 | 38.66178 | -80.85357 | 7495 ft | 206 kts | 71° |
| 2026-05-05 22:05 | 38.66746 | -80.83672 | 7495 ft | 206 kts | 71° |
| 2026-05-05 22:05 | 38.67309 | -80.81998 | 7493 ft | 206 kts | 71° |
| 2026-05-05 22:06 | 38.67876 | -80.80315 | 7490 ft | 206 kts | 71° |
| 2026-05-05 22:06 | 38.68439 | -80.78641 | 7489 ft | 207 kts | 71° |
| 2026-05-05 22:06 | 38.69012 | -80.76939 | 7493 ft | 206 kts | 71° |
| 2026-05-05 22:06 | 38.69575 | -80.75260 | 7490 ft | 206 kts | 71° |
| 2026-05-05 22:07 | 38.70143 | -80.73571 | 7490 ft | 207 kts | 71° |
| 2026-05-05 22:07 | 38.70707 | -80.71890 | 7486 ft | 207 kts | 72° |
| 2026-05-05 22:07 | 38.71276 | -80.70193 | 7488 ft | 207 kts | 71° |
| 2026-05-05 22:07 | 38.71847 | -80.68488 | 7486 ft | 207 kts | 71° |
| 2026-05-05 22:08 | 38.72415 | -80.66794 | 7491 ft | 207 kts | 72° |
| 2026-05-05 22:08 | 38.72979 | -80.65109 | 7488 ft | 208 kts | 70° |
| 2026-05-05 22:08 | 38.73549 | -80.63406 | 7490 ft | 208 kts | 70° |
| 2026-05-05 22:08 | 38.74119 | -80.61701 | 7491 ft | 208 kts | 71° |
| 2026-05-05 22:09 | 38.74690 | -80.59992 | 7493 ft | 207 kts | 71° |
| 2026-05-05 22:09 | 38.75254 | -80.58305 | 7492 ft | 207 kts | 71° |
| 2026-05-05 22:09 | 38.75823 | -80.56601 | 7493 ft | 208 kts | 71° |
| 2026-05-05 22:09 | 38.76387 | -80.54912 | 7496 ft | 207 kts | 71° |
| 2026-05-05 22:10 | 38.76958 | -80.53197 | 7495 ft | 207 kts | 70° |
| 2026-05-05 22:10 | 38.77517 | -80.51519 | 7496 ft | 207 kts | 71° |
| 2026-05-05 22:10 | 38.78087 | -80.49808 | 7499 ft | 207 kts | 71° |
| 2026-05-05 22:10 | 38.78648 | -80.48125 | 7499 ft | 207 kts | 71° |
| 2026-05-05 22:11 | 38.79216 | -80.46415 | 7496 ft | 208 kts | 71° |
| 2026-05-05 22:11 | 38.79783 | -80.44710 | 7497 ft | 208 kts | 71° |
| 2026-05-05 22:11 | 38.80345 | -80.43019 | 7497 ft | 207 kts | 71° |
| 2026-05-05 22:11 | 38.80906 | -80.41328 | 7497 ft | 207 kts | 71° |
| 2026-05-05 22:12 | 38.81473 | -80.39619 | 7500 ft | 208 kts | 71° |
| 2026-05-05 22:12 | 38.82037 | -80.37918 | 7499 ft | 208 kts | 71° |
| 2026-05-05 22:12 | 38.82605 | -80.36206 | 7500 ft | 208 kts | 71° |
| 2026-05-05 22:12 | 38.83169 | -80.34503 | 7498 ft | 208 kts | 71° |
| 2026-05-05 22:13 | 38.83733 | -80.32801 | 7497 ft | 208 kts | 71° |
| 2026-05-05 22:13 | 38.84302 | -80.31081 | 7499 ft | 208 kts | 71° |
| 2026-05-05 22:13 | 38.84866 | -80.29376 | 7503 ft | 208 kts | 72° |
| 2026-05-05 22:13 | 38.85428 | -80.27676 | 7504 ft | 207 kts | 72° |
| 2026-05-05 22:14 | 38.85991 | -80.25971 | 7509 ft | 207 kts | 71° |
| 2026-05-05 22:14 | 38.86552 | -80.24274 | 7514 ft | 207 kts | 72° |
| 2026-05-05 22:14 | 38.87112 | -80.22574 | 7513 ft | 207 kts | 72° |
| 2026-05-05 22:14 | 38.87672 | -80.20878 | 7512 ft | 207 kts | 72° |
| 2026-05-05 22:15 | 38.88237 | -80.19163 | 7512 ft | 208 kts | 72° |
| 2026-05-05 22:15 | 38.88791 | -80.17477 | 7515 ft | 207 kts | 71° |
| 2026-05-05 22:15 | 38.89352 | -80.15775 | 7516 ft | 207 kts | 72° |
| 2026-05-05 22:15 | 38.89916 | -80.14057 | 7519 ft | 206 kts | 71° |
| 2026-05-05 22:16 | 38.90467 | -80.12380 | 7520 ft | 206 kts | 71° |
| 2026-05-05 22:16 | 38.91031 | -80.10664 | 7523 ft | 206 kts | 72° |
| 2026-05-05 22:16 | 38.91580 | -80.08981 | 7521 ft | 206 kts | 72° |
| 2026-05-05 22:16 | 38.92090 | -80.07270 | 7521 ft | 205 kts | 75° |
| 2026-05-05 22:17 | 38.92575 | -80.05553 | 7533 ft | 205 kts | 75° |
| 2026-05-05 22:17 | 38.93054 | -80.03832 | 7530 ft | 205 kts | 75° |
| 2026-05-05 22:17 | 38.93538 | -80.02094 | 7523 ft | 205 kts | 75° |
| 2026-05-05 22:17 | 38.94017 | -80.00387 | 7546 ft | 205 kts | 75° |
| 2026-05-05 22:18 | 38.94508 | -79.98645 | 7536 ft | 206 kts | 75° |
| 2026-05-05 22:18 | 38.94990 | -79.96941 | 7532 ft | 206 kts | 75° |
| 2026-05-05 22:18 | 38.95480 | -79.95216 | 7539 ft | 206 kts | 75° |
| 2026-05-05 22:18 | 38.95971 | -79.93488 | 7548 ft | 206 kts | 75° |
| 2026-05-05 22:19 | 38.96463 | -79.91753 | 7545 ft | 206 kts | 75° |
| 2026-05-05 22:19 | 38.96951 | -79.90036 | 7551 ft | 206 kts | 75° |
| 2026-05-05 22:19 | 38.97440 | -79.88312 | 7559 ft | 206 kts | 74° |
| 2026-05-05 22:19 | 38.97932 | -79.86578 | 7546 ft | 206 kts | 75° |
| 2026-05-05 22:20 | 38.98419 | -79.84859 | 7558 ft | 206 kts | 75° |
| 2026-05-05 22:20 | 38.98915 | -79.83109 | 7544 ft | 206 kts | 74° |
| 2026-05-05 22:20 | 38.99400 | -79.81393 | 7541 ft | 207 kts | 74° |
| 2026-05-05 22:20 | 38.99893 | -79.79653 | 7545 ft | 206 kts | 75° |
| 2026-05-05 22:21 | 39.00381 | -79.77930 | 7556 ft | 207 kts | 74° |
| 2026-05-05 22:21 | 39.00877 | -79.76173 | 7549 ft | 208 kts | 74° |
| 2026-05-05 22:21 | 39.01368 | -79.74434 | 7542 ft | 208 kts | 74° |
| 2026-05-05 22:21 | 39.01860 | -79.72691 | 7538 ft | 208 kts | 74° |
| 2026-05-05 22:22 | 39.02351 | -79.70950 | 7536 ft | 208 kts | 73° |
| 2026-05-05 22:22 | 39.02847 | -79.69189 | 7541 ft | 208 kts | 74° |
| 2026-05-05 22:22 | 39.03338 | -79.67445 | 7537 ft | 209 kts | 73° |
| 2026-05-05 22:22 | 39.03836 | -79.65676 | 7537 ft | 209 kts | 73° |
| 2026-05-05 22:23 | 39.04326 | -79.63938 | 7538 ft | 208 kts | 73° |
| 2026-05-05 22:23 | 39.04823 | -79.62168 | 7541 ft | 208 kts | 73° |
| 2026-05-05 22:23 | 39.05313 | -79.60424 | 7542 ft | 208 kts | 73° |
| 2026-05-05 22:23 | 39.05804 | -79.58678 | 7546 ft | 208 kts | 74° |
| 2026-05-05 22:24 | 39.06296 | -79.56927 | 7548 ft | 208 kts | 73° |
| 2026-05-05 22:24 | 39.06785 | -79.55183 | 7548 ft | 208 kts | 73° |
| 2026-05-05 22:24 | 39.07279 | -79.53419 | 7548 ft | 208 kts | 73° |
| 2026-05-05 22:24 | 39.07764 | -79.51685 | 7545 ft | 209 kts | 73° |
| 2026-05-05 22:25 | 39.08257 | -79.49925 | 7543 ft | 209 kts | 73° |
| 2026-05-05 22:25 | 39.08751 | -79.48158 | 7546 ft | 209 kts | 73° |
| 2026-05-05 22:25 | 39.09241 | -79.46407 | 7550 ft | 208 kts | 73° |
| 2026-05-05 22:25 | 39.09729 | -79.44661 | 7551 ft | 208 kts | 73° |
| 2026-05-05 22:26 | 39.10215 | -79.42917 | 7543 ft | 208 kts | 73° |
| 2026-05-05 22:26 | 39.10706 | -79.41155 | 7543 ft | 208 kts | 73° |
| 2026-05-05 22:26 | 39.11195 | -79.39404 | 7545 ft | 207 kts | 74° |
| 2026-05-05 22:26 | 39.11676 | -79.37676 | 7547 ft | 207 kts | 73° |
| 2026-05-05 22:27 | 39.12162 | -79.35930 | 7542 ft | 207 kts | 73° |
| 2026-05-05 22:27 | 39.12648 | -79.34187 | 7540 ft | 207 kts | 74° |
| 2026-05-05 22:27 | 39.13124 | -79.32472 | 7539 ft | 207 kts | 74° |
| 2026-05-05 22:27 | 39.13607 | -79.30737 | 7541 ft | 206 kts | 73° |
| 2026-05-05 22:28 | 39.14088 | -79.29005 | 7546 ft | 205 kts | 74° |
| 2026-05-05 22:28 | 39.14570 | -79.27266 | 7542 ft | 206 kts | 74° |
| 2026-05-05 22:28 | 39.15054 | -79.25523 | 7541 ft | 206 kts | 73° |
| 2026-05-05 22:28 | 39.15530 | -79.23805 | 7539 ft | 206 kts | 74° |
| 2026-05-05 22:29 | 39.16013 | -79.22063 | 7535 ft | 206 kts | 73° |
| 2026-05-05 22:29 | 39.16496 | -79.20316 | 7531 ft | 206 kts | 74° |
| 2026-05-05 22:29 | 39.16975 | -79.18585 | 7529 ft | 206 kts | 74° |
| 2026-05-05 22:29 | 39.17452 | -79.16857 | 7524 ft | 206 kts | 74° |
| 2026-05-05 22:30 | 39.17930 | -79.15128 | 7520 ft | 206 kts | 73° |
| 2026-05-05 22:30 | 39.18413 | -79.13375 | 7514 ft | 206 kts | 74° |
| 2026-05-05 22:30 | 39.18887 | -79.11659 | 7511 ft | 206 kts | 74° |
| 2026-05-05 22:30 | 39.19365 | -79.09922 | 7508 ft | 205 kts | 74° |
| 2026-05-05 22:31 | 39.19841 | -79.08195 | 7505 ft | 205 kts | 75° |
| 2026-05-05 22:31 | 39.20321 | -79.06451 | 7499 ft | 205 kts | 73° |
| 2026-05-05 22:31 | 39.20799 | -79.04716 | 7498 ft | 205 kts | 74° |
| 2026-05-05 22:31 | 39.21272 | -79.02994 | 7495 ft | 205 kts | 74° |
| 2026-05-05 22:32 | 39.21752 | -79.01246 | 7491 ft | 205 kts | 73° |
| 2026-05-05 22:32 | 39.22216 | -78.99521 | 7490 ft | 205 kts | 76° |
| 2026-05-05 22:32 | 39.22572 | -78.97738 | 7495 ft | 205 kts | 81° |
| 2026-05-05 22:32 | 39.22855 | -78.95937 | 7493 ft | 205 kts | 83° |
| 2026-05-05 22:33 | 39.23116 | -78.94138 | 7493 ft | 205 kts | 84° |
| 2026-05-05 22:33 | 39.23370 | -78.92339 | 7496 ft | 204 kts | 84° |
| 2026-05-05 22:33 | 39.23625 | -78.90532 | 7501 ft | 204 kts | 84° |
| 2026-05-05 22:33 | 39.23878 | -78.88738 | 7505 ft | 204 kts | 84° |
| 2026-05-05 22:34 | 39.24132 | -78.86951 | 7505 ft | 204 kts | 84° |
| 2026-05-05 22:34 | 39.24388 | -78.85163 | 7507 ft | 204 kts | 84° |
| 2026-05-05 22:34 | 39.24649 | -78.83340 | 7513 ft | 204 kts | 84° |
| 2026-05-05 22:34 | 39.24908 | -78.81538 | 7513 ft | 205 kts | 84° |
| 2026-05-05 22:35 | 39.25164 | -78.79757 | 7516 ft | 205 kts | 84° |
| 2026-05-05 22:35 | 39.25426 | -78.77931 | 7518 ft | 205 kts | 84° |
| 2026-05-05 22:35 | 39.25682 | -78.76142 | 7521 ft | 204 kts | 84° |
| 2026-05-05 22:35 | 39.25943 | -78.74320 | 7523 ft | 204 kts | 84° |
| 2026-05-05 22:36 | 39.26200 | -78.72528 | 7519 ft | 205 kts | 84° |
| 2026-05-05 22:36 | 39.26458 | -78.70724 | 7516 ft | 205 kts | 84° |
| 2026-05-05 22:36 | 39.26718 | -78.68903 | 7513 ft | 205 kts | 84° |
| 2026-05-05 22:36 | 39.26975 | -78.67100 | 7508 ft | 205 kts | 83° |
| 2026-05-05 22:37 | 39.27236 | -78.65272 | 7507 ft | 205 kts | 83° |
| 2026-05-05 22:37 | 39.27493 | -78.63465 | 7502 ft | 205 kts | 83° |
| 2026-05-05 22:37 | 39.27751 | -78.61649 | 7502 ft | 206 kts | 83° |
| 2026-05-05 22:37 | 39.28006 | -78.59842 | 7516 ft | 205 kts | 84° |
| 2026-05-05 22:38 | 39.28263 | -78.58034 | 7522 ft | 205 kts | 83° |
| 2026-05-05 22:38 | 39.28522 | -78.56211 | 7523 ft | 205 kts | 84° |
| 2026-05-05 22:38 | 39.28776 | -78.54414 | 7520 ft | 205 kts | 83° |
| 2026-05-05 22:38 | 39.29033 | -78.52602 | 7519 ft | 205 kts | 83° |
| 2026-05-05 22:39 | 39.29287 | -78.50800 | 7518 ft | 205 kts | 83° |
| 2026-05-05 22:39 | 39.29542 | -78.48991 | 7518 ft | 205 kts | 83° |
| 2026-05-05 22:39 | 39.29800 | -78.47163 | 7518 ft | 205 kts | 84° |
| 2026-05-05 22:39 | 39.30053 | -78.45363 | 7515 ft | 206 kts | 83° |
| 2026-05-05 22:40 | 39.30310 | -78.43533 | 7514 ft | 206 kts | 83° |
| 2026-05-05 22:40 | 39.30564 | -78.41722 | 7514 ft | 205 kts | 83° |
| 2026-05-05 22:40 | 39.30819 | -78.39906 | 7510 ft | 206 kts | 83° |
| 2026-05-05 22:40 | 39.31071 | -78.38104 | 7512 ft | 206 kts | 83° |
| 2026-05-05 22:41 | 39.31324 | -78.36294 | 7511 ft | 206 kts | 83° |
| 2026-05-05 22:41 | 39.31579 | -78.34469 | 7501 ft | 206 kts | 84° |
| 2026-05-05 22:41 | 39.31833 | -78.32658 | 7496 ft | 205 kts | 84° |
| 2026-05-05 22:41 | 39.32085 | -78.30852 | 7504 ft | 205 kts | 84° |
| 2026-05-05 22:42 | 39.32338 | -78.29038 | 7516 ft | 205 kts | 84° |
| 2026-05-05 22:42 | 39.32591 | -78.27216 | 7501 ft | 206 kts | 84° |
| 2026-05-05 22:42 | 39.32856 | -78.25427 | 7497 ft | 205 kts | 82° |
| 2026-05-05 22:42 | 39.33143 | -78.23611 | 7493 ft | 203 kts | 82° |
| 2026-05-05 22:43 | 39.33416 | -78.21835 | 7502 ft | 202 kts | 82° |
| 2026-05-05 22:43 | 39.33685 | -78.20034 | 7515 ft | 203 kts | 82° |
| 2026-05-05 22:43 | 39.33945 | -78.18249 | 7499 ft | 203 kts | 83° |
| 2026-05-05 22:43 | 39.34201 | -78.16445 | 7502 ft | 203 kts | 83° |
| 2026-05-05 22:44 | 39.34454 | -78.14638 | 7502 ft | 203 kts | 83° |
| 2026-05-05 22:44 | 39.34703 | -78.12842 | 7501 ft | 204 kts | 83° |
| 2026-05-05 22:44 | 39.34949 | -78.11061 | 7501 ft | 204 kts | 83° |
| 2026-05-05 22:44 | 39.35197 | -78.09257 | 7501 ft | 204 kts | 83° |
| 2026-05-05 22:45 | 39.35447 | -78.07436 | 7503 ft | 203 kts | 83° |
| 2026-05-05 22:45 | 39.35691 | -78.05658 | 7500 ft | 203 kts | 83° |
| 2026-05-05 22:45 | 39.35938 | -78.03848 | 7499 ft | 204 kts | 83° |
| 2026-05-05 22:45 | 39.36186 | -78.02033 | 7498 ft | 204 kts | 83° |
| 2026-05-05 22:46 | 39.36434 | -78.00218 | 7500 ft | 204 kts | 83° |
| 2026-05-05 22:46 | 39.36680 | -77.98418 | 7497 ft | 204 kts | 83° |
| 2026-05-05 22:46 | 39.36926 | -77.96606 | 7497 ft | 204 kts | 83° |
| 2026-05-05 22:46 | 39.37171 | -77.94809 | 7500 ft | 204 kts | 83° |
| 2026-05-05 22:47 | 39.37416 | -77.93002 | 7501 ft | 204 kts | 83° |
| 2026-05-05 22:47 | 39.37664 | -77.91178 | 7501 ft | 204 kts | 83° |
| 2026-05-05 22:47 | 39.37908 | -77.89379 | 7501 ft | 204 kts | 83° |
| 2026-05-05 22:47 | 39.38154 | -77.87559 | 7499 ft | 204 kts | 83° |
| 2026-05-05 22:48 | 39.38397 | -77.85770 | 7497 ft | 204 kts | 83° |
| 2026-05-05 22:48 | 39.38640 | -77.83961 | 7494 ft | 204 kts | 83° |
| 2026-05-05 22:48 | 39.38881 | -77.82126 | 7495 ft | 204 kts | 83° |
| 2026-05-05 22:48 | 39.39114 | -77.80315 | 7493 ft | 204 kts | 84° |
| 2026-05-05 22:49 | 39.39347 | -77.78501 | 7492 ft | 205 kts | 83° |
| 2026-05-05 22:49 | 39.39579 | -77.76689 | 7493 ft | 205 kts | 83° |
| 2026-05-05 22:49 | 39.39812 | -77.74880 | 7498 ft | 204 kts | 83° |
| 2026-05-05 22:49 | 39.40043 | -77.73081 | 7499 ft | 205 kts | 84° |
| 2026-05-05 22:50 | 39.40276 | -77.71262 | 7500 ft | 205 kts | 84° |
| 2026-05-05 22:50 | 39.40509 | -77.69447 | 7500 ft | 205 kts | 83° |
| 2026-05-05 22:50 | 39.40744 | -77.67611 | 7504 ft | 205 kts | 83° |
| 2026-05-05 22:50 | 39.40976 | -77.65800 | 7508 ft | 205 kts | 84° |
| 2026-05-05 22:51 | 39.41209 | -77.63985 | 7513 ft | 205 kts | 83° |
| 2026-05-05 22:51 | 39.41440 | -77.62175 | 7517 ft | 205 kts | 83° |
| 2026-05-05 22:51 | 39.41672 | -77.60353 | 7524 ft | 205 kts | 84° |
| 2026-05-05 22:51 | 39.41904 | -77.58533 | 7522 ft | 205 kts | 84° |
| 2026-05-05 22:52 | 39.42136 | -77.56710 | 7524 ft | 205 kts | 83° |
| 2026-05-05 22:52 | 39.42365 | -77.54916 | 7527 ft | 205 kts | 83° |
| 2026-05-05 22:52 | 39.42596 | -77.53091 | 7531 ft | 205 kts | 83° |
| 2026-05-05 22:52 | 39.42827 | -77.51277 | 7534 ft | 205 kts | 83° |
| 2026-05-05 22:53 | 39.43059 | -77.49442 | 7536 ft | 205 kts | 83° |
| 2026-05-05 22:53 | 39.43288 | -77.47629 | 7536 ft | 205 kts | 84° |
| 2026-05-05 22:53 | 39.43519 | -77.45796 | 7535 ft | 206 kts | 83° |
| 2026-05-05 22:53 | 39.43747 | -77.43990 | 7534 ft | 206 kts | 83° |
| 2026-05-05 22:54 | 39.43977 | -77.42162 | 7534 ft | 206 kts | 84° |
| 2026-05-05 22:54 | 39.44209 | -77.40326 | 7536 ft | 206 kts | 84° |
| 2026-05-05 22:54 | 39.44439 | -77.38497 | 7533 ft | 206 kts | 84° |
| 2026-05-05 22:54 | 39.44667 | -77.36679 | 7531 ft | 206 kts | 83° |
| 2026-05-05 22:55 | 39.44897 | -77.34836 | 7529 ft | 207 kts | 84° |
| 2026-05-05 22:55 | 39.45126 | -77.33012 | 7523 ft | 206 kts | 84° |
| 2026-05-05 22:55 | 39.45354 | -77.31182 | 7519 ft | 206 kts | 84° |
| 2026-05-05 22:55 | 39.45583 | -77.29354 | 7519 ft | 206 kts | 84° |
| 2026-05-05 22:56 | 39.45810 | -77.27531 | 7522 ft | 206 kts | 84° |
| 2026-05-05 22:56 | 39.46039 | -77.25687 | 7511 ft | 206 kts | 84° |
| 2026-05-05 22:56 | 39.46266 | -77.23861 | 7508 ft | 206 kts | 84° |
| 2026-05-05 22:56 | 39.46492 | -77.22041 | 7512 ft | 206 kts | 84° |
| 2026-05-05 22:57 | 39.46718 | -77.20218 | 7525 ft | 207 kts | 84° |
| 2026-05-05 22:57 | 39.46945 | -77.18384 | 7500 ft | 206 kts | 84° |
| 2026-05-05 22:57 | 39.47171 | -77.16551 | 7509 ft | 206 kts | 84° |
| 2026-05-05 22:57 | 39.47398 | -77.14720 | 7511 ft | 206 kts | 84° |
| 2026-05-05 22:58 | 39.47622 | -77.12898 | 7528 ft | 206 kts | 84° |
| 2026-05-05 22:58 | 39.47848 | -77.11066 | 7501 ft | 206 kts | 84° |
| 2026-05-05 22:58 | 39.48073 | -77.09236 | 7508 ft | 205 kts | 84° |
| 2026-05-05 22:58 | 39.48296 | -77.07423 | 7513 ft | 205 kts | 84° |
| 2026-05-05 22:59 | 39.48521 | -77.05585 | 7514 ft | 205 kts | 84° |
| 2026-05-05 22:59 | 39.48744 | -77.03765 | 7514 ft | 206 kts | 84° |
| 2026-05-05 22:59 | 39.48966 | -77.01949 | 7525 ft | 206 kts | 84° |
| 2026-05-05 22:59 | 39.49190 | -77.00119 | 7526 ft | 206 kts | 84° |
| 2026-05-05 23:00 | 39.49647 | -76.96410 | 7521 ft | 209 kts | 83° |
| 2026-05-05 23:00 | 39.49901 | -76.94560 | 7499 ft | 209 kts | 82° |
| 2026-05-05 23:00 | 39.50161 | -76.92728 | 7501 ft | 208 kts | 82° |
| 2026-05-05 23:01 | 39.50423 | -76.90888 | 7495 ft | 207 kts | 82° |
| 2026-05-05 23:01 | 39.50682 | -76.89064 | 7510 ft | 207 kts | 82° |
| 2026-05-05 23:01 | 39.50941 | -76.87228 | 7523 ft | 207 kts | 82° |
| 2026-05-05 23:01 | 39.51196 | -76.85406 | 7518 ft | 208 kts | 82° |
| 2026-05-05 23:02 | 39.51456 | -76.83540 | 7519 ft | 209 kts | 82° |
| 2026-05-05 23:02 | 39.51714 | -76.81681 | 7514 ft | 210 kts | 83° |
| 2026-05-05 23:02 | 39.51970 | -76.79832 | 7502 ft | 208 kts | 82° |
| 2026-05-05 23:02 | 39.52224 | -76.77994 | 7525 ft | 208 kts | 83° |
| 2026-05-05 23:03 | 39.52478 | -76.76152 | 7519 ft | 209 kts | 83° |
| 2026-05-05 23:03 | 39.52732 | -76.74309 | 7513 ft | 209 kts | 83° |
| 2026-05-05 23:03 | 39.52986 | -76.72462 | 7508 ft | 209 kts | 83° |
| 2026-05-05 23:03 | 39.53240 | -76.70612 | 7517 ft | 208 kts | 83° |
| 2026-05-05 23:04 | 39.53495 | -76.68752 | 7514 ft | 208 kts | 83° |
| 2026-05-05 23:04 | 39.53745 | -76.66930 | 7518 ft | 207 kts | 83° |
| 2026-05-05 23:04 | 39.53996 | -76.65096 | 7515 ft | 208 kts | 83° |
| 2026-05-05 23:04 | 39.54247 | -76.63257 | 7513 ft | 208 kts | 83° |
| 2026-05-05 23:05 | 39.54499 | -76.61409 | 7519 ft | 208 kts | 83° |
| 2026-05-05 23:05 | 39.54750 | -76.59574 | 7524 ft | 208 kts | 83° |
| 2026-05-05 23:05 | 39.55001 | -76.57729 | 7517 ft | 208 kts | 83° |
| 2026-05-05 23:05 | 39.55254 | -76.55868 | 7510 ft | 208 kts | 83° |
| 2026-05-05 23:06 | 39.55502 | -76.54045 | 7513 ft | 207 kts | 83° |
| 2026-05-05 23:06 | 39.55752 | -76.52203 | 7519 ft | 208 kts | 83° |
| 2026-05-05 23:06 | 39.56001 | -76.50360 | 7527 ft | 208 kts | 82° |
| 2026-05-05 23:06 | 39.56251 | -76.48515 | 7517 ft | 208 kts | 83° |
| 2026-05-05 23:07 | 39.56500 | -76.46672 | 7523 ft | 208 kts | 83° |
| 2026-05-05 23:07 | 39.56749 | -76.44830 | 7525 ft | 208 kts | 83° |
| 2026-05-05 23:07 | 39.57000 | -76.42970 | 7521 ft | 209 kts | 83° |
| 2026-05-05 23:07 | 39.57251 | -76.41106 | 7521 ft | 208 kts | 83° |
| 2026-05-05 23:08 | 39.57497 | -76.39276 | 7524 ft | 209 kts | 83° |
| 2026-05-05 23:08 | 39.57748 | -76.37406 | 7500 ft | 211 kts | 83° |
| 2026-05-05 23:08 | 39.58001 | -76.35520 | 7459 ft | 212 kts | 83° |
| 2026-05-05 23:08 | 39.58251 | -76.33654 | 7417 ft | 213 kts | 84° |
| 2026-05-05 23:09 | 39.58506 | -76.31745 | 7366 ft | 214 kts | 84° |
| 2026-05-05 23:09 | 39.58758 | -76.29862 | 7314 ft | 214 kts | 83° |
| 2026-05-05 23:09 | 39.59010 | -76.27973 | 7262 ft | 214 kts | 84° |
| 2026-05-05 23:09 | 39.59266 | -76.26060 | 7224 ft | 214 kts | 84° |
| 2026-05-05 23:10 | 39.59523 | -76.24162 | 7168 ft | 214 kts | 84° |
| 2026-05-05 23:10 | 39.59780 | -76.22266 | 7130 ft | 214 kts | 84° |
| 2026-05-05 23:10 | 39.60037 | -76.20358 | 7083 ft | 214 kts | 84° |
| 2026-05-05 23:10 | 39.60293 | -76.18444 | 7033 ft | 214 kts | 84° |
| 2026-05-05 23:11 | 39.60545 | -76.16550 | 6985 ft | 214 kts | 84° |
| 2026-05-05 23:11 | 39.60796 | -76.14657 | 6942 ft | 214 kts | 84° |
| 2026-05-05 23:11 | 39.61051 | -76.12737 | 6889 ft | 214 kts | 84° |
| 2026-05-05 23:11 | 39.61301 | -76.10842 | 6845 ft | 214 kts | 84° |
| 2026-05-05 23:12 | 39.61552 | -76.08933 | 6798 ft | 214 kts | 84° |
| 2026-05-05 23:12 | 39.61802 | -76.07033 | 6755 ft | 214 kts | 84° |
| 2026-05-05 23:12 | 39.62052 | -76.05124 | 6705 ft | 214 kts | 84° |
| 2026-05-05 23:12 | 39.62299 | -76.03249 | 6654 ft | 213 kts | 85° |
| 2026-05-05 23:13 | 39.62544 | -76.01380 | 6595 ft | 208 kts | 85° |
| 2026-05-05 23:13 | 39.62786 | -75.99545 | 6527 ft | 204 kts | 84° |
| 2026-05-05 23:13 | 39.63024 | -75.97738 | 6495 ft | 202 kts | 85° |
| 2026-05-05 23:13 | 39.63258 | -75.95950 | 6443 ft | 200 kts | 85° |
| 2026-05-05 23:14 | 39.63489 | -75.94179 | 6405 ft | 199 kts | 85° |
| 2026-05-05 23:14 | 39.63718 | -75.92419 | 6357 ft | 199 kts | 85° |
| 2026-05-05 23:14 | 39.63950 | -75.90633 | 6294 ft | 198 kts | 85° |
| 2026-05-05 23:14 | 39.64179 | -75.88870 | 6236 ft | 199 kts | 85° |
| 2026-05-05 23:15 | 39.64407 | -75.87116 | 6179 ft | 198 kts | 85° |
| 2026-05-05 23:15 | 39.64635 | -75.85358 | 6098 ft | 198 kts | 85° |
| 2026-05-05 23:15 | 39.64865 | -75.83582 | 6044 ft | 199 kts | 85° |
| 2026-05-05 23:15 | 39.65094 | -75.81809 | 5996 ft | 199 kts | 85° |
| 2026-05-05 23:16 | 39.65321 | -75.80054 | 5971 ft | 199 kts | 85° |
| 2026-05-05 23:16 | 39.65550 | -75.78281 | 5883 ft | 199 kts | 85° |
| 2026-05-05 23:16 | 39.65776 | -75.76528 | 5812 ft | 199 kts | 85° |
| 2026-05-05 23:16 | 39.66004 | -75.74754 | 5767 ft | 197 kts | 85° |
| 2026-05-05 23:17 | 39.66243 | -75.73018 | 5721 ft | 197 kts | 81° |
| 2026-05-05 23:17 | 39.66981 | -75.71530 | 5679 ft | 198 kts | 36° |
| 2026-05-05 23:17 | 39.68148 | -75.70628 | 5645 ft | 194 kts | 21° |
| 2026-05-05 23:17 | 39.69367 | -75.69890 | 5604 ft | 194 kts | 18° |
| 2026-05-05 23:18 | 39.70598 | -75.69167 | 5561 ft | 194 kts | 18° |
| 2026-05-05 23:18 | 39.71816 | -75.68430 | 5517 ft | 194 kts | 19° |
| 2026-05-05 23:18 | 39.73038 | -75.67667 | 5473 ft | 194 kts | 20° |
| 2026-05-05 23:18 | 39.74260 | -75.66891 | 5430 ft | 195 kts | 20° |
| 2026-05-05 23:19 | 39.75473 | -75.66113 | 5388 ft | 195 kts | 20° |
| 2026-05-05 23:19 | 39.76691 | -75.65328 | 5347 ft | 195 kts | 20° |
| 2026-05-05 23:19 | 39.77896 | -75.64549 | 5306 ft | 195 kts | 20° |
| 2026-05-05 23:19 | 39.79121 | -75.63757 | 5265 ft | 195 kts | 20° |
| 2026-05-05 23:20 | 39.80328 | -75.62975 | 5224 ft | 195 kts | 20° |
| 2026-05-05 23:20 | 39.81554 | -75.62182 | 5181 ft | 195 kts | 20° |
| 2026-05-05 23:20 | 39.82773 | -75.61392 | 5143 ft | 196 kts | 20° |
| 2026-05-05 23:20 | 39.83996 | -75.60599 | 5103 ft | 198 kts | 20° |
| 2026-05-05 23:21 | 39.85237 | -75.59795 | 5014 ft | 198 kts | 21° |
| 2026-05-05 23:21 | 39.86465 | -75.58997 | 4901 ft | 196 kts | 21° |
| 2026-05-05 23:21 | 39.87689 | -75.58228 | 4788 ft | 193 kts | 15° |
| 2026-05-05 23:21 | 39.88968 | -75.57876 | 4684 ft | 184 kts | 353° |
| 2026-05-05 23:22 | 39.90250 | -75.57782 | 4573 ft | 184 kts | 354° |
| 2026-05-05 23:22 | 39.91518 | -75.57681 | 4466 ft | 184 kts | 354° |
| 2026-05-05 23:22 | 39.92813 | -75.57579 | 4355 ft | 184 kts | 354° |
| 2026-05-05 23:22 | 39.94093 | -75.57481 | 4242 ft | 185 kts | 353° |
| 2026-05-05 23:23 | 39.95349 | -75.57525 | 4131 ft | 174 kts | 333° |
| 2026-05-05 23:23 | 39.96281 | -75.58332 | 4031 ft | 151 kts | 295° |
| 2026-05-05 23:23 | 39.96664 | -75.59502 | 3929 ft | 134 kts | 266° |
| 2026-05-05 23:23 | 39.96556 | -75.60639 | 3827 ft | 125 kts | 243° |
| 2026-05-05 23:24 | 39.96070 | -75.61543 | 3722 ft | 122 kts | 221° |
| 2026-05-05 23:24 | 39.95305 | -75.62063 | 3617 ft | 126 kts | 200° |
| 2026-05-05 23:24 | 39.94411 | -75.62058 | 3511 ft | 136 kts | 175° |
| 2026-05-05 23:24 | 39.93559 | -75.61368 | 3407 ft | 152 kts | 147° |
| 2026-05-05 23:25 | 39.92788 | -75.60440 | 3291 ft | 151 kts | 150° |
| 2026-05-05 23:25 | 39.91999 | -75.59544 | 3174 ft | 151 kts | 150° |
| 2026-05-05 23:25 | 39.91204 | -75.58643 | 3064 ft | 150 kts | 151° |
| 2026-05-05 23:25 | 39.90338 | -75.58003 | 2930 ft | 139 kts | 172° |
| 2026-05-05 23:26 | 39.89406 | -75.57844 | 2804 ft | 132 kts | 188° |
| 2026-05-05 23:26 | 39.88498 | -75.57897 | 2689 ft | 131 kts | 189° |
| 2026-05-05 23:26 | 39.87604 | -75.58073 | 2570 ft | 127 kts | 203° |
| 2026-05-05 23:26 | 39.86876 | -75.58704 | 2454 ft | 127 kts | 224° |
| 2026-05-05 23:27 | 39.86433 | -75.59710 | 2329 ft | 133 kts | 245° |
| 2026-05-05 23:27 | 39.86410 | -75.60957 | 2198 ft | 145 kts | 271° |
| 2026-05-05 23:27 | 39.86927 | -75.62143 | 2065 ft | 163 kts | 304° |
| 2026-05-05 23:27 | 39.87999 | -75.62779 | 1998 ft | 178 kts | 345° |
| 2026-05-05 23:28 | 39.89223 | -75.62731 | 2010 ft | 175 kts | 354° |
| 2026-05-05 23:28 | 39.90430 | -75.62678 | 2003 ft | 172 kts | 354° |
| 2026-05-05 23:28 | 39.91634 | -75.62631 | 2007 ft | 172 kts | 353° |
| 2026-05-05 23:28 | 39.92819 | -75.62587 | 2018 ft | 172 kts | 353° |
| 2026-05-05 23:29 | 39.94027 | -75.62542 | 2025 ft | 172 kts | 352° |
| 2026-05-05 23:29 | 39.95235 | -75.62461 | 2009 ft | 176 kts | 1° |
| 2026-05-05 23:29 | 39.96307 | -75.61709 | 2001 ft | 177 kts | 51° |
| 2026-05-05 23:29 | 39.96818 | -75.60317 | 2005 ft | 167 kts | 92° |
| 2026-05-05 23:30 | 39.96656 | -75.58917 | 2006 ft | 148 kts | 127° |
| 2026-05-05 23:30 | 39.96039 | -75.57941 | 2016 ft | 134 kts | 155° |
| 2026-05-05 23:30 | 39.95227 | -75.57489 | 2012 ft | 125 kts | 176° |
| 2026-05-05 23:30 | 39.94368 | -75.57460 | 2021 ft | 120 kts | 187° |
| 2026-05-05 23:31 | 39.93531 | -75.57519 | 2011 ft | 119 kts | 189° |
| 2026-05-05 23:31 | 39.92709 | -75.57592 | 2014 ft | 120 kts | 189° |
| 2026-05-05 23:31 | 39.91867 | -75.57664 | 2011 ft | 119 kts | 188° |
| 2026-05-05 23:31 | 39.91040 | -75.57727 | 2004 ft | 119 kts | 190° |
| 2026-05-05 23:32 | 39.90214 | -75.57794 | 2009 ft | 118 kts | 189° |
| 2026-05-05 23:32 | 39.89400 | -75.57858 | 2021 ft | 118 kts | 189° |
| 2026-05-05 23:32 | 39.88583 | -75.57921 | 2024 ft | 118 kts | 188° |
| 2026-05-05 23:32 | 39.87752 | -75.57985 | 2034 ft | 118 kts | 190° |
| 2026-05-05 23:33 | 39.86923 | -75.58082 | 2013 ft | 119 kts | 190° |
| 2026-05-05 23:33 | 39.86104 | -75.58186 | 2017 ft | 119 kts | 191° |
| 2026-05-05 23:33 | 39.85273 | -75.58275 | 2015 ft | 118 kts | 191° |
| 2026-05-05 23:33 | 39.84448 | -75.58369 | 2024 ft | 118 kts | 189° |
| 2026-05-05 23:34 | 39.83627 | -75.58460 | 2008 ft | 118 kts | 191° |
| 2026-05-05 23:34 | 39.82813 | -75.58557 | 2003 ft | 117 kts | 190° |
| 2026-05-05 23:34 | 39.82002 | -75.58649 | 2003 ft | 116 kts | 189° |
| 2026-05-05 23:34 | 39.81197 | -75.58741 | 2008 ft | 116 kts | 191° |
| 2026-05-05 23:35 | 39.80390 | -75.58836 | 2003 ft | 115 kts | 190° |
| 2026-05-05 23:35 | 39.79592 | -75.58927 | 2007 ft | 114 kts | 191° |
| 2026-05-05 23:35 | 39.78803 | -75.59018 | 1989 ft | 115 kts | 190° |
| 2026-05-05 23:35 | 39.77970 | -75.59115 | 1897 ft | 122 kts | 189° |
| 2026-05-05 23:36 | 39.77100 | -75.59216 | 1729 ft | 130 kts | 189° |
| 2026-05-05 23:36 | 39.76213 | -75.59315 | 1530 ft | 118 kts | 189° |
| 2026-05-05 23:36 | 39.75451 | -75.59399 | 1388 ft | 102 kts | 189° |
| 2026-05-05 23:36 | 39.74781 | -75.59476 | 1265 ft | 92 kts | 189° |
| 2026-05-05 23:37 | 39.74159 | -75.59553 | 1149 ft | 87 kts | 189° |
| 2026-05-05 23:37 | 39.73569 | -75.59623 | 1050 ft | 84 kts | 191° |
| 2026-05-05 23:37 | 39.72986 | -75.59692 | 910 ft | 83 kts | 188° |
| 2026-05-05 23:37 | 39.72409 | -75.59756 | 804 ft | 84 kts | 187° |
| 2026-05-05 23:38 | 39.71821 | -75.59822 | 697 ft | 85 kts | 187° |
| 2026-05-05 23:38 | 39.71215 | -75.59890 | 580 ft | 88 kts | 187° |
| 2026-05-05 23:38 | 39.70610 | -75.59960 | 459 ft | 87 kts | 186° |
| 2026-05-05 23:38 | 39.69998 | -75.60029 | 339 ft | 89 kts | 185° |
| 2026-05-05 23:39 | 39.69401 | -75.60092 | 225 ft | 83 kts | 187° |
| 2026-05-05 23:39 | 39.68830 | -75.60165 | 94 ft | 78 kts | 185° |
| 2026-05-05 23:39 | 39.68359 | -75.60216 | 62 ft | 54 kts | 182° |
| 2026-05-05 23:39 | 39.68050 | -75.60252 | 67 ft | 35 kts | 185° |
| 2026-05-05 23:40 | 39.67849 | -75.60275 | 71 ft | 22 kts | 185° |
| 2026-05-05 23:40 | 39.67712 | -75.60292 | 72 ft | 18 kts | 185° |
| 2026-05-05 23:40 | 39.67591 | -75.60307 | 73 ft | 16 kts | 186° |
| 2026-05-05 23:40 | 39.67491 | -75.60374 | 73 ft | 16 kts | 219° |
| 2026-05-05 23:41 | 39.67400 | -75.60476 | 73 ft | 17 kts | 220° |
| 2026-05-05 23:41 | 39.67308 | -75.60580 | 71 ft | 18 kts | 220° |
| 2026-05-05 23:41 | 39.67237 | -75.60663 | 70 ft | 11 kts | 239° |
| 2026-05-05 23:41 | 39.67278 | -75.60763 | 70 ft | 15 kts | 310° |
| 2026-05-05 23:42 | 39.67359 | -75.60883 | 70 ft | 15 kts | 310° |
| 2026-05-05 23:42 | 39.67417 | -75.60973 | 71 ft | 11 kts | 291° |
| 2026-05-05 23:42 | 39.67377 | -75.61054 | 71 ft | 13 kts | 222° |
| 2026-05-05 23:42 | 39.67347 | -75.61132 | 70 ft | 9 kts | 293° |
| 2026-05-05 23:43 | 39.67400 | -75.61217 | 71 ft | 14 kts | 313° |
| 2026-05-05 23:43 | 39.67474 | -75.61327 | 73 ft | 12 kts | 312° |
| 2026-05-05 23:43 | 39.67519 | -75.61399 | 74 ft | 7 kts | 295° |
| 2026-05-05 23:43 | 39.67503 | -75.61414 | 75 ft | 0 kts | 130° |